Time;durP1;ratioP1;P1;durP2;ratioP2;P2;SDS_P1;SDS_P2;PMS_P1;PMS_P2;Temp;Humidity;BMP_temperature;BMP_pressure;BME280_temperature;BME280_humidity;BME280_pressure;Samples;Min_cycle;Max_cycle;Signal;HPM_P1;HPM_P2
2022/10/20 00:00:53;;;;;;;103.00;56.88;;;;;;;;;;5051373;28;20025;-55
2022/10/20 00:03:19;;;;;;;88.82;54.38;;;;;;;;;;5051171;28;20033;-54
2022/10/20 00:05:45;;;;;;;93.00;51.67;;;;;;;;;;5051303;28;20033;-54
2022/10/20 00:08:11;;;;;;;84.45;49.80;;;;;;;;;;5050770;28;20052;-56
2022/10/20 00:10:37;;;;;;;83.20;51.45;;;;;;;;;;5050942;28;20402;-54
2022/10/20 00:13:03;;;;;;;88.47;51.75;;;;;;;;;;5050049;28;20031;-54
2022/10/20 00:15:29;;;;;;;89.13;53.42;;;;;;;;;;5049800;28;20482;-54
2022/10/20 00:17:55;;;;;;;92.07;52.33;;;;;;;;;;5051256;28;20071;-53
2022/10/20 00:20:21;;;;;;;92.43;53.10;;;;;;;;;;5050814;28;20033;-57
2022/10/20 00:22:47;;;;;;;89.93;54.03;;;;;;;;;;5050906;28;20120;-54
2022/10/20 00:25:13;;;;;;;94.95;51.95;;;;;;;;;;5050854;28;20516;-56
2022/10/20 00:27:39;;;;;;;89.45;52.33;;;;;;;;;;5050885;28;20485;-53
2022/10/20 00:30:05;;;;;;;93.03;51.22;;;;;;;;;;5050801;28;20083;-53
2022/10/20 00:32:31;;;;;;;78.03;50.43;;;;;;;;;;5051132;28;20033;-54
2022/10/20 00:34:58;;;;;;;87.45;51.00;;;;;;;;;;5049610;28;20029;-53
2022/10/20 00:37:24;;;;;;;86.90;52.05;;;;;;;;;;5050742;28;20036;-54
2022/10/20 00:39:50;;;;;;;113.00;75.55;;;;;;;;;;5050706;28;20029;-53
2022/10/20 00:42:17;;;;;;;93.45;52.95;;;;;;;;;;5050846;28;20155;-54
2022/10/20 00:44:46;;;;;;;95.75;55.58;;;;;;;;;;5050744;28;20366;-55
2022/10/20 00:47:13;;;;;;;89.68;50.67;;;;;;;;;;5050580;28;20374;-54
2022/10/20 00:49:40;;;;;;;92.78;55.78;;;;;;;;;;5050550;28;20025;-54
2022/10/20 00:52:07;;;;;;;81.03;52.77;;;;;;;;;;5050707;28;20032;-53
2022/10/20 00:54:33;;;;;;;82.45;50.75;;;;;;;;;;5050692;28;20492;-53
2022/10/20 00:57:00;;;;;;;82.63;48.17;;;;;;;;;;5051096;28;20029;-53
2022/10/20 00:59:28;;;;;;;80.18;49.88;;;;;;;;;;5050246;28;20028;-53
2022/10/20 01:01:54;;;;;;;83.28;51.80;;;;;;;;;;5050427;28;20061;-55
2022/10/20 01:04:21;;;;;;;87.70;51.05;;;;;;;;;;5047130;28;20512;-56
2022/10/20 01:06:47;;;;;;;86.22;52.15;;;;;;;;;;5050656;28;20037;-54
2022/10/20 01:09:13;;;;;;;83.27;52.47;;;;;;;;;;5054085;28;20087;-55
2022/10/20 01:11:58;;;;;;;97.70;52.35;;;;;;;;;;5053013;28;20029;-53
2022/10/20 01:14:39;;;;;;;95.78;52.13;;;;;;;;;;5054051;28;20096;-53
2022/10/20 01:17:13;;;;;;;87.95;51.88;;;;;;;;;;5052494;28;20485;-54
2022/10/20 01:19:53;;;;;;;100.95;55.53;;;;;;;;;;5043968;28;20112;-53
2022/10/20 01:22:25;;;;;;;88.40;52.85;;;;;;;;;;5053850;28;20082;-55
2022/10/20 01:25:06;;;;;;;85.72;51.47;;;;;;;;;;5053852;28;20032;-54
2022/10/20 01:27:33;;;;;;;94.72;52.22;;;;;;;;;;5053887;28;20037;-54
2022/10/20 01:30:08;;;;;;;82.47;51.13;;;;;;;;;;5052228;28;20039;-54
2022/10/20 01:32:54;;;;;;;83.45;50.28;;;;;;;;;;5053823;28;20029;-54
2022/10/20 01:35:23;;;;;;;85.13;50.05;;;;;;;;;;5048709;28;20512;-53
2022/10/20 01:37:59;;;;;;;79.68;50.25;;;;;;;;;;5053539;28;20027;-56
2022/10/20 01:40:28;;;;;;;87.60;51.65;;;;;;;;;;5053313;28;20033;-54
2022/10/20 01:42:56;;;;;;;78.95;47.45;;;;;;;;;;5053841;28;20029;-54
2022/10/20 01:45:24;;;;;;;85.65;47.33;;;;;;;;;;5076310;22;20408;-65
2022/10/20 01:47:51;;;;;;;80.20;51.00;;;;;;;;;;5038105;28;20083;-65
2022/10/20 01:50:19;;;;;;;91.05;53.22;;;;;;;;;;5037291;28;20025;-65
2022/10/20 01:52:45;;;;;;;78.13;49.60;;;;;;;;;;5051198;28;20029;-65
2022/10/20 01:55:18;;;;;;;80.90;49.50;;;;;;;;;;5053576;28;20543;-65
2022/10/20 01:57:53;;;;;;;73.93;49.40;;;;;;;;;;5053451;28;20021;-65
2022/10/20 02:00:19;;;;;;;92.00;49.45;;;;;;;;;;5052910;28;20416;-65
2022/10/20 02:02:45;;;;;;;83.50;50.47;;;;;;;;;;5053386;28;20497;-65
2022/10/20 02:05:27;;;;;;;84.85;48.40;;;;;;;;;;5052954;28;20072;-65
2022/10/20 02:07:55;;;;;;;85.47;49.25;;;;;;;;;;5053025;28;20040;-65
2022/10/20 02:10:29;;;;;;;77.18;47.10;;;;;;;;;;5051407;28;20170;-65
2022/10/20 02:12:58;;;;;;;82.40;48.78;;;;;;;;;;5053102;28;20033;-65
2022/10/20 02:15:25;;;;;;;79.88;48.65;;;;;;;;;;5052801;28;20386;-65
2022/10/20 02:17:51;;;;;;;;;;;;;;;;;;5052905;28;20032;-66
2022/10/20 02:20:17;;;;;;;81.50;48.70;;;;;;;;;;5052756;28;19909;-65
2022/10/20 02:22:43;;;;;;;74.53;46.13;;;;;;;;;;5052839;28;20061;-65
2022/10/20 02:25:11;;;;;;;73.40;45.83;;;;;;;;;;5052815;28;20036;-65
2022/10/20 02:27:39;;;;;;;82.13;46.63;;;;;;;;;;5051372;28;20485;-65
2022/10/20 02:30:10;;;;;;;81.47;47.22;;;;;;;;;;5052226;28;20029;-65
2022/10/20 02:32:36;;;;;;;75.82;48.53;;;;;;;;;;5052406;28;20029;-65
2022/10/20 02:35:09;;;;;;;87.07;49.55;;;17.20;82.50;;;;;;5052349;28;20485;-65
2022/10/20 02:37:35;;;;;;;77.18;46.70;;;;;;;;;;5052703;28;20091;-65
2022/10/20 02:40:01;;;;;;;77.70;44.70;;;;;;;;;;5051975;28;20032;-65
2022/10/20 02:42:27;;;;;;;82.97;47.45;;;;;;;;;;5051511;28;20033;-65
2022/10/20 02:44:54;;;;;;;85.13;50.50;;;;;;;;;;5051232;28;20040;-65
2022/10/20 02:47:21;;;;;;;71.95;43.78;;;;;;;;;;5052303;28;20037;-65
2022/10/20 02:49:47;;;;;;;74.03;45.67;;;;;;;;;;5052167;28;20044;-65
2022/10/20 02:52:13;;;;;;;73.05;44.70;;;;;;;;;;5055074;28;20037;-65
2022/10/20 02:54:39;;;;;;;73.05;43.80;;;;;;;;;;5052255;28;20039;-65
2022/10/20 02:57:05;;;;;;;77.32;42.92;;;;;;;;;;5052180;28;20124;-65
2022/10/20 02:59:32;;;;;;;77.95;46.72;;;;;;;;;;5052174;28;20025;-65
2022/10/20 03:01:58;;;;;;;79.00;47.67;;;;;;;;;;5052044;28;20033;-65
2022/10/20 03:04:24;;;;;;;78.32;49.97;;;;;;;;;;5052182;28;20115;-65
2022/10/20 03:06:50;;;;;;;78.28;47.83;;;;;;;;;;5052265;28;20420;-65
2022/10/20 03:09:16;;;;;;;79.32;46.15;;;;;;;;;;5051812;28;20029;-65
2022/10/20 03:11:42;;;;;;;75.78;47.17;;;;;;;;;;5052117;28;20021;-65
2022/10/20 03:14:08;;;;;;;71.20;45.30;;;;;;;;;;5052176;28;20025;-65
2022/10/20 03:16:34;;;;;;;72.75;44.97;;;;;;;;;;5052064;28;20028;-65
2022/10/20 03:19:00;;;;;;;86.68;49.95;;;;;;;;;;5051879;28;20025;-65
2022/10/20 03:21:26;;;;;;;84.82;49.42;;;;;;;;;;5053263;28;20115;-65
2022/10/20 03:23:52;;;;;;;78.57;48.35;;;;;;;;;;5050987;28;20029;-65
2022/10/20 03:26:18;;;;;;;88.20;51.22;;;;;;;;;;5051768;28;20435;-65
2022/10/20 03:28:44;;;;;;;94.18;53.83;;;;;;;;;;5051367;28;20025;-65
2022/10/20 03:31:10;;;;;;;82.43;52.88;;;;;;;;;;5051090;28;20056;-65
2022/10/20 03:33:36;;;;;;;93.25;52.47;;;;;;;;;;5051431;28;20033;-65
2022/10/20 03:36:03;;;;;;;83.72;49.38;;;;;;;;;;5052246;28;20550;-65
2022/10/20 03:38:29;;;;;;;83.77;51.13;;;;;;;;;;5051255;28;20074;-65
2022/10/20 03:40:55;;;;;;;92.60;52.70;;;;;;;;;;5051327;28;20758;-65
2022/10/20 03:43:21;;;;;;;86.72;49.33;;;;;;;;;;5051511;28;20120;-65
2022/10/20 03:45:47;;;;;;;83.97;51.33;;;;;;;;;;5050296;28;20134;-65
2022/10/20 03:48:13;;;;;;;84.72;50.55;;;;;;;;;;5051306;28;20052;-65
2022/10/20 03:50:40;;;;;;;82.40;50.70;;;;;;;;;;5050900;28;20032;-61
2022/10/20 03:53:06;;;;;;;77.72;47.80;;;;;;;;;;5051602;28;20025;-64
2022/10/20 03:55:32;;;;;;;81.80;49.03;;;;;;;;;;5051520;28;20025;-65
2022/10/20 03:57:58;;;;;;;79.80;48.85;;;;;;;;;;5051444;28;20527;-65
2022/10/20 04:00:24;;;;;;;80.88;47.22;;;;;;;;;;5050950;28;20025;-65
2022/10/20 04:02:51;;;;;;;83.10;48.15;;;;;;;;;;5051771;28;20033;-65
2022/10/20 04:05:19;;;;;;;80.07;48.28;;;;;;;;;;5051556;28;20029;-66
2022/10/20 04:07:45;;;;;;;75.95;47.92;;;;;;;;;;5051609;28;20025;-65
2022/10/20 04:10:12;;;;;;;80.82;47.05;;;;;;;;;;5051307;28;20025;-65
2022/10/20 04:12:38;;;;;;;81.85;50.05;;;;;;;;;;5051273;28;20032;-65
2022/10/20 04:15:05;;;;;;;85.43;48.72;;;;;;;;;;5051335;28;20021;-65
2022/10/20 04:17:31;;;;;;;82.90;48.17;;;;;;;;;;5051495;28;20029;-65
2022/10/20 04:19:57;;;;;;;87.00;48.30;;;;;;;;;;5051461;28;20485;-66
2022/10/20 04:22:23;;;;;;;85.80;49.45;;;;;;;;;;5051421;28;20036;-66
2022/10/20 04:24:49;;;;;;;77.53;46.78;;;;;;;;;;5051147;28;20413;-65
2022/10/20 04:27:15;;;;;;;78.68;45.60;;;;;;;;;;5051334;28;20141;-65
2022/10/20 04:29:41;;;;;;;83.97;48.05;;;;;;;;;;5051134;28;20021;-66
2022/10/20 04:32:07;;;;;;;79.45;45.58;;;;;;;;;;5051202;28;20112;-65
2022/10/20 04:34:34;;;;;;;69.88;44.65;;;;;;;;;;5051268;28;20067;-65
2022/10/20 04:37:00;;;;;;;72.05;43.00;;;;;;;;;;5051265;28;20025;-65
2022/10/20 04:39:26;;;;;;;77.78;43.28;;;;;;;;;;5050972;28;20040;-65
2022/10/20 04:41:52;;;;;;;74.97;43.80;;;;;;;;;;5052972;28;20103;-65
2022/10/20 04:44:18;;;;;;;71.45;43.38;;;;;;;;;;5054800;28;20036;-65
2022/10/20 04:46:44;;;;;;;74.63;44.97;;;;;;;;;;5054956;28;20325;-65
2022/10/20 04:49:10;;;;;;;69.10;39.38;;;;;;;;;;5054790;28;20055;-65
2022/10/20 04:51:36;;;;;;;84.68;45.83;;;;;;;;;;5055333;28;20029;-65
2022/10/20 04:54:02;;;;;;;73.35;44.30;;;;;;;;;;5054609;28;20063;-65
2022/10/20 04:56:28;;;;;;;70.43;41.83;;;;;;;;;;5054703;28;20032;-66
2022/10/20 04:58:56;;;;;;;76.25;43.75;;;;;;;;;;5054471;28;20381;-65
2022/10/20 05:01:23;;;;;;;74.07;45.95;;;;;;;;;;5054718;28;20025;-65
2022/10/20 05:03:50;;;;;;;88.25;47.70;;;;;;;;;;5053223;28;20021;-65
2022/10/20 05:06:19;;;;;;;80.67;48.63;;;;;;;;;;5054551;28;20032;-66
2022/10/20 05:08:46;;;;;;;79.22;47.90;;;;;;;;;;5054273;28;20355;-66
2022/10/20 05:11:13;;;;;;;75.53;44.22;;;;;;;;;;5054455;28;20100;-66
2022/10/20 05:13:39;;;;;;;68.18;40.85;;;;;;;;;;5054230;28;20489;-66
2022/10/20 05:16:05;;;;;;;46.47;31.23;;;;;;;;;;5054384;28;20025;-66
2022/10/20 05:18:32;;;;;;;68.18;42.88;;;;;;;;;;5054213;28;20067;-66
2022/10/20 05:20:58;;;;;;;75.00;44.67;;;;;;;;;;5054310;28;20350;-66
2022/10/20 05:23:24;;;;;;;71.00;43.42;;;;;;;;;;5054544;28;20262;-66
2022/10/20 05:25:50;;;;;;;71.38;42.72;;;;;;;;;;5054224;28;20060;-66
2022/10/20 05:28:16;;;;;;;67.05;40.80;;;;;;;;;;5054032;28;20033;-66
2022/10/20 05:30:42;;;;;;;69.10;42.38;;;;;;;;;;5052904;28;20021;-65
2022/10/20 05:33:09;;;;;;;65.93;39.40;;;;;;;;;;5054086;28;20033;-66
2022/10/20 05:35:35;;;;;;;;;;;;;;;;;;5054356;28;20493;-65
2022/10/20 05:38:01;;;;;;;61.50;36.53;;;;;;;;;;5054043;28;19912;-66
2022/10/20 05:40:27;;;;;;;67.13;41.22;;;;;;;;;;5053803;28;20473;-65
2022/10/20 05:42:53;;;;;;;61.88;36.65;;;;;;;;;;5053900;28;20021;-65
2022/10/20 05:45:19;;;;;;;62.72;35.97;;;;;;;;;;5054073;28;20060;-65
2022/10/20 05:47:45;;;;;;;54.22;34.70;;;;;;;;;;5053817;28;20482;-65
2022/10/20 05:50:12;;;;;;;59.92;33.45;;;;;;;;;;5053626;28;20029;-65
2022/10/20 05:52:38;;;;;;;57.40;36.45;;;;;;;;;;5053133;28;20028;-66
2022/10/20 05:55:04;;;;;;;72.43;41.17;;;;;;;;;;5053361;28;20393;-65
2022/10/20 05:57:30;;;;;;;70.97;42.80;;;;;;;;;;5053664;28;20028;-66
2022/10/20 05:59:56;;;;;;;63.60;39.63;;;;;;;;;;5053412;28;20029;-65
2022/10/20 06:02:22;;;;;;;66.43;36.75;;;;;;;;;;5053630;28;20060;-65
2022/10/20 06:04:48;;;;;;;63.63;37.20;;;;;;;;;;5053408;28;20025;-66
2022/10/20 06:07:14;;;;;;;53.30;35.45;;;;;;;;;;5053471;28;20040;-65
2022/10/20 06:09:40;;;;;;;59.55;37.33;;;;;;;;;;5051903;28;20404;-65
2022/10/20 06:12:07;;;;;;;65.00;37.60;;;;;;;;;;5052183;28;20033;-66
2022/10/20 06:14:33;;;;;;;60.13;34.55;;;;;;;;;;5053410;28;20071;-66
2022/10/20 06:16:59;;;;;;;57.28;36.47;;;;;;;;;;5053403;28;20049;-66
2022/10/20 06:19:25;;;;;;;68.07;36.13;;;;;;;;;;5053007;28;20473;-66
2022/10/20 06:21:51;;;;;;;73.38;39.33;;;;;;;;;;5051920;28;20029;-66
2022/10/20 06:24:18;;;;;;;52.97;32.08;;;;;;;;;;5053345;28;20028;-65
2022/10/20 06:26:45;;;;;;;86.43;35.50;;;;;;;;;;5053113;28;20497;-66
2022/10/20 06:29:12;;;;;;;73.85;43.28;;;;;;;;;;5052892;28;20673;-66
2022/10/20 06:31:48;;;;;;;75.63;43.03;;;;;;;;;;5052923;28;20029;-66
2022/10/20 06:34:18;;;;;;;90.57;42.78;;;;;;;;;;5052840;28;20432;-65
2022/10/20 06:36:45;;;;;;;67.72;41.35;;;;;;;;;;5052900;28;20017;-66
2022/10/20 06:39:12;;;;;;;71.30;44.67;;;;;;;;;;5052746;28;20028;-66
2022/10/20 06:41:39;;;;;;;84.78;45.97;;;;;;;;;;5052843;28;20266;-65
2022/10/20 06:44:06;;;;;;;81.78;47.25;;;;;;;;;;5052652;28;20079;-65
2022/10/20 06:46:33;;;;;;;74.80;45.53;;;;;;;;;;5052677;28;20021;-65
2022/10/20 06:49:00;;;;;;;80.93;46.53;;;;;;;;;;5052327;28;20040;-65
2022/10/20 06:51:26;;;;;;;80.60;47.28;;;;;;;;;;5052598;28;20017;-66
2022/10/20 06:53:52;;;;;;;90.87;50.17;;;;;;;;;;5052499;28;20543;-65
2022/10/20 06:56:19;;;;;;;82.13;47.03;;;;;;;;;;5052536;28;20082;-65
2022/10/20 06:58:47;;;;;;;90.10;47.83;;;;;;;;;;5052369;28;20048;-65
2022/10/20 07:01:16;;;;;;;83.00;49.42;;;;;;;;;;5052354;28;20052;-65
2022/10/20 07:03:42;;;;;;;87.13;51.65;;;;;;;;;;5052313;28;20021;-65
2022/10/20 07:06:10;;;;;;;79.75;46.72;;;;;;;;;;5052340;28;20033;-66
2022/10/20 07:08:36;;;;;;;84.90;47.17;;;;;;;;;;5052665;28;20028;-66
2022/10/20 07:11:03;;;;;;;87.72;48.97;;;;;;;;;;5052245;28;20389;-66
2022/10/20 07:13:30;;;;;;;82.82;47.75;;;;;;;;;;5052103;28;20540;-66
2022/10/20 07:15:57;;;;;;;94.15;52.55;;;;;;;;;;5050764;28;20029;-66
2022/10/20 07:18:23;;;;;;;77.70;47.15;;;;;;;;;;5052033;28;20057;-66
2022/10/20 07:20:49;;;;;;;85.82;47.03;;;;;;;;;;5052150;28;20107;-66
2022/10/20 07:23:15;;;;;;;90.13;50.83;;;;;;;;;;5052092;28;20112;-66
2022/10/20 07:25:41;;;;;;;81.32;47.05;;;;;;;;;;5051926;28;20059;-66
2022/10/20 07:28:08;;;;;;;91.80;48.77;;;;;;;;;;5052331;28;20074;-59
2022/10/20 07:30:38;;;;;;;78.60;49.00;;;;;;;;;;5051877;28;20036;-58
2022/10/20 07:33:04;;;;;;;87.15;51.10;;;;;;;;;;5051866;28;20025;-59
2022/10/20 07:35:30;;;;;;;87.27;50.47;;;;;;;;;;5050561;28;20044;-60
2022/10/20 07:37:56;;;;;;;87.43;50.75;;;;;;;;;;5051836;28;20731;-57
2022/10/20 07:40:22;;;;;;;89.13;52.65;;;;;;;;;;5051659;28;20486;-60
2022/10/20 07:42:48;;;;;;;97.45;56.67;;;;;;;;;;5050335;28;20037;-60
2022/10/20 07:45:14;;;;;;;89.45;51.33;;;;;;;;;;5073473;22;20114;-53
2022/10/20 07:47:40;;;;;;;88.22;52.85;;;;;;;;;;5052009;28;20463;-53
2022/10/20 07:50:07;;;;;;;97.82;52.50;;;;;;;;;;5051394;28;20397;-54
2022/10/20 07:52:33;;;;;;;92.07;52.78;;;;;;;;;;5051731;28;20028;-54
2022/10/20 07:54:59;;;;;;;93.60;54.38;;;15.50;86.90;;;;;;5051599;28;20036;-53
2022/10/20 07:57:25;;;;;;;105.83;57.70;;;17.50;86.30;;;;;;5051609;28;20032;-53
2022/10/20 07:59:50;;;;;;;94.70;53.80;;;17.50;86.20;;;;;;5051659;28;20029;-54
2022/10/20 08:02:16;;;;;;;92.50;54.72;;;17.60;86.20;;;;;;5051622;28;20511;-54
2022/10/20 08:04:43;;;;;;;109.00;55.97;;;17.70;85.80;;;;;;5051525;28;20420;-54
2022/10/20 08:07:09;;;;;;;87.65;53.45;;;;;;;;;;5051583;28;20021;-54
2022/10/20 08:09:36;;;;;;;88.70;53.63;;;;;;;;;;5051371;28;20033;-53
2022/10/20 08:12:02;;;;;;;82.40;51.83;;;;;;;;;;5051297;28;20036;-53
2022/10/20 08:14:32;;;;;;;88.93;53.83;;;;;;;;;;5051460;28;20036;-54
2022/10/20 08:16:58;;;;;;;91.43;52.60;;;;;;;;;;5053453;28;20100;-53
2022/10/20 08:19:24;;;;;;;85.70;52.17;;;;;;;;;;5055422;28;20024;-56
2022/10/20 08:21:50;;;;;;;84.57;52.70;;;;;;;;;;5055547;28;20033;-56
2022/10/20 08:24:16;;;;;;;83.78;48.63;;;;;;;;;;5054013;28;20025;-56
2022/10/20 08:26:42;;;;;;;74.80;46.80;;;;;;;;;;5055684;28;20151;-56
2022/10/20 08:29:09;;;;;;;80.20;45.22;;;;;;;;;;5055227;28;20490;-56
2022/10/20 08:31:35;;;;;;;72.53;45.40;;;17.70;86.10;;;;;;5055351;28;20052;-54
2022/10/20 08:34:01;;;;;;;64.78;40.92;;;;;;;;;;5055084;28;20473;-54
2022/10/20 08:36:27;;;;;;;62.37;40.13;;;18.20;83.90;;;;;;5055288;28;20135;-54
2022/10/20 08:38:53;;;;;;;59.70;38.17;;;;;;;;;;5054926;28;20029;-54
2022/10/20 08:41:37;;;;;;;57.87;36.77;;;18.20;84.00;;;;;;5055108;28;20043;-54
2022/10/20 08:44:04;;;;;;;58.97;38.90;;;;;;;;;;5054958;28;20104;-55
2022/10/20 08:46:32;;;;;;;59.85;36.03;;;;;;;;;;5055065;28;20041;-54
2022/10/20 08:48:59;;;;;;;55.05;34.47;;;;;;;;;;5055226;28;20020;-54
2022/10/20 08:51:29;;;;;;;54.70;36.38;;;18.30;83.30;;;;;;5054914;28;20113;-55
2022/10/20 08:53:57;;;;;;;48.75;34.33;;;;;;;;;;5054785;28;20106;-54
2022/10/20 08:56:24;;;;;;;53.92;34.53;;;;;;;;;;5055069;28;20028;-54
2022/10/20 08:58:50;;;;;;;45.95;31.30;;;;;;;;;;5054648;28;20078;-54
2022/10/20 09:01:27;;;;;;;49.67;35.60;;;;;;;;;;5054841;28;20076;-54
2022/10/20 09:03:58;;;;;;;45.75;29.23;;;;;;;;;;5054693;28;20036;-54
2022/10/20 09:06:24;;;;;;;45.78;30.33;;;;;;;;;;5054820;28;20040;-54
2022/10/20 09:08:50;;;;;;;44.78;31.13;;;;;;;;;;5054422;28;20025;-54
2022/10/20 09:11:22;;;;;;;42.38;28.67;;;;;;;;;;5054617;28;20176;-54
2022/10/20 09:13:48;;;;;;;46.08;29.55;;;;;;;;;;5054504;28;20075;-54
2022/10/20 09:16:25;;;;;;;45.58;29.55;;;;;;;;;;5054413;28;20447;-54
2022/10/20 09:18:54;;;;;;;44.47;28.80;;;;;;;;;;5052971;28;20021;-54
2022/10/20 09:21:21;;;;;;;43.67;27.00;;;;;;;;;;5053102;28;20200;-55
2022/10/20 09:23:52;;;;;;;40.00;27.67;;;;;;;;;;5054443;28;20104;-54
2022/10/20 09:26:27;;;;;;;46.97;27.33;;;;;;;;;;5054198;28;20025;-54
2022/10/20 09:29:03;;;;;;;39.75;27.38;;;;;;;;;;5052785;28;20025;-54
2022/10/20 09:31:33;;;;;;;38.90;26.65;;;;;;;;;;5054236;28;20464;-54
2022/10/20 09:33:59;;;;;;;35.67;26.58;;;;;;;;;;5054026;28;20028;-54
2022/10/20 09:36:29;;;;;;;37.33;25.45;;;;;;;;;;5054116;28;20032;-54
2022/10/20 09:38:55;;;;;;;34.10;22.77;;;;;;;;;;5053975;28;20024;-54
2022/10/20 09:41:26;;;;;;;41.35;26.73;;;;;;;;;;5054071;28;20170;-54
2022/10/20 09:43:56;;;;;;;44.03;26.77;;;;;;;;;;5053949;28;20033;-55
2022/10/20 09:46:26;;;;;;;38.05;26.75;;;;;;;;;;5053846;28;20072;-55
2022/10/20 09:48:53;;;;;;;41.30;28.00;;;;;;;;;;5053684;28;20029;-55
2022/10/20 09:51:28;;;;;;;39.33;25.58;;;;;;;;;;5053947;28;20036;-55
2022/10/20 09:54:00;;;;;;;33.55;25.10;;;;;;;;;;5053674;28;20519;-55
2022/10/20 09:56:31;;;;;;;46.17;27.63;;;;;;;;;;5053748;28;20103;-55
2022/10/20 09:58:57;;;;;;;39.28;24.92;;;;;;;;;;5053613;28;20029;-54
2022/10/20 10:01:24;;;;;;;43.95;27.95;;;;;;;;;;5053699;28;20104;-56
2022/10/20 10:03:51;;;;;;;35.90;25.52;;;;;;;;;;5053696;28;20052;-54
2022/10/20 10:06:36;;;;;;;42.13;27.25;;;;;;;;;;5053424;28;20420;-56
2022/10/20 10:09:03;;;;;;;39.88;27.90;;;;;;;;;;5053507;28;20056;-56
2022/10/20 10:11:29;;;;;;;;;;;;;;;;;;5053830;28;20086;-54
2022/10/20 10:13:55;;;;;;;41.85;27.95;;;;;;;;;;5052914;28;19916;-56
2022/10/20 10:16:23;;;;;;;42.28;28.00;;;;;;;;;;5053022;28;20036;-53
2022/10/20 10:19:00;;;;;;;41.15;28.80;;;;;;;;;;5044665;28;20074;-54
2022/10/20 10:21:27;;;;;;;44.75;28.25;;;;;;;;;;5039069;28;20147;-56
2022/10/20 10:24:00;;;;;;;42.88;28.25;;;;;;;;;;5043151;28;20059;-53
2022/10/20 10:26:34;;;;;;;46.28;28.25;;;;;;;;;;5045161;28;20033;-54
2022/10/20 10:29:00;;;;;;;45.55;29.08;;;;;;;;;;5047909;28;20036;-55
2022/10/20 10:31:26;;;;;;;42.03;28.95;;;;;;;;;;5050228;28;20021;-54
2022/10/20 10:34:05;;;;;;;39.00;29.23;;;;;;;;;;5044814;28;20478;-53
2022/10/20 10:36:35;;;;;;;39.03;27.70;;;;;;;;;;5042875;28;20545;-55
2022/10/20 10:39:02;;;;;;;40.38;27.88;;;;;;;;;;5050580;28;20025;-53
2022/10/20 10:41:28;;;;;;;;;;;;;;;;;;5052195;28;20025;-54
2022/10/20 10:43:56;;;;;;;45.05;26.58;;;;;;;;;;5052689;28;19904;-54
2022/10/20 10:46:36;;;;;;;41.60;28.52;;;;;;;;;;5052559;28;20033;-55
2022/10/20 10:49:14;;;;;;;38.88;26.67;;;;;;;;;;5052242;28;20071;-54
2022/10/20 10:52:04;;;;;;;44.25;28.30;;;;;;;;;;5046434;28;20026;-56
2022/10/20 10:54:43;;;;;;;35.97;26.55;;;;;;;;;;5032461;28;20055;-55
2022/10/20 10:57:26;;;;;;;44.55;28.70;;;;;;;;;;5043284;28;20036;-54
2022/10/20 10:59:53;;;;;;;41.08;28.42;;;;;;;;;;5051843;28;20074;-55
2022/10/20 11:02:25;;;;;;;40.33;27.38;;;;;;;;;;5048098;28;20040;-54
2022/10/20 11:05:03;;;;;;;46.78;26.73;;;;;;;;;;5051272;28;20033;-54
2022/10/20 11:07:35;;;;;;;42.25;28.15;;;;;;;;;;5047047;28;20112;-55
2022/10/20 11:10:04;;;;;;;40.92;26.80;;;;;;;;;;5047449;28;20033;-54
2022/10/20 11:12:57;;;;;;;49.17;29.88;;;;;;;;;;5046101;28;20037;-54
2022/10/20 11:15:28;;;;;;;40.80;28.83;;;;;;;;;;5029932;28;20037;-55
2022/10/20 11:17:58;;;;;;;39.78;27.55;;;;;;;;;;5050653;28;20021;-54
2022/10/20 11:20:30;;;;;;;40.28;25.77;;;;;;;;;;5047311;28;20025;-54
2022/10/20 11:22:56;;;;;;;39.75;27.33;;;;;;;;;;5032185;28;20033;-55
2022/10/20 11:25:34;;;;;;;34.97;27.75;;;;;;;;;;5040379;28;20031;-53
2022/10/20 11:28:22;;;;;;;37.88;25.98;;;;;;;;;;5051475;28;20066;-54
2022/10/20 11:30:48;;;;;;;45.35;24.70;;;;;;;;;;5051770;28;20056;-56
2022/10/20 11:33:16;;;;;;;35.90;26.33;;;;;;;;;;5051896;28;20499;-56
2022/10/20 11:35:45;;;;;;;33.90;25.65;;;;;;;;;;5051758;28;20049;-57
2022/10/20 11:38:24;;;;;;;36.90;25.90;;;;;;;;;;5051060;28;20041;-54
2022/10/20 11:40:57;;;;;;;35.70;24.55;;;;;;;;;;5051773;28;20397;-55
2022/10/20 11:43:33;;;;;;;38.25;26.67;;;18.60;81.90;;;;;;5050056;28;20032;-54
2022/10/20 11:46:10;;;;;;;36.35;25.00;;;;;;;;;;5051665;28;20106;-55
2022/10/20 11:48:42;;;;;;;38.38;24.23;;;23.60;67.00;;;;;;5051369;28;20035;-56
2022/10/20 11:51:08;;;;;;;37.58;23.73;;;;;;;;;;5050591;28;20025;-55
2022/10/20 11:53:46;;;;;;;38.47;25.93;;;;;;;;;;5051399;28;20508;-56
2022/10/20 11:56:21;;;;;;;37.60;25.27;;;;;;;;;;5051426;28;20037;-55
2022/10/20 11:59:13;;;;;;;35.15;23.67;;;;;;;;;;5051409;28;20370;-56
2022/10/20 12:01:58;;;;;;;36.15;24.77;;;;;;;;;;5051865;28;20052;-54
2022/10/20 12:04:42;;;;;;;32.35;23.42;;;;;;;;;;5031569;28;20486;-56
2022/10/20 12:07:20;;;;;;;40.75;24.15;;;;;;;;;;5035778;28;20017;-56
2022/10/20 12:09:51;;;;;;;41.50;25.10;;;;;;;;;;5051200;28;20354;-54
2022/10/20 12:12:17;;;;;;;34.40;23.08;;;;;;;;;;5050883;28;20508;-56
2022/10/20 12:14:44;;;;;;;31.80;22.00;;;;;;;;;;5051460;28;20017;-56
2022/10/20 12:17:12;;;;;;;35.28;22.45;;;;;;;;;;5051425;28;20099;-55
2022/10/20 12:19:38;;;;;;;31.95;21.67;;;;;;;;;;5051125;28;20025;-54
2022/10/20 12:22:13;;;;;;;31.75;20.13;;;;;;;;;;5051130;28;20035;-55
2022/10/20 12:24:49;;;;;;;34.95;22.02;;;;;;;;;;5050486;28;20032;-54
2022/10/20 12:27:17;;;;;;;29.27;21.70;;;;;;;;;;5051349;28;20028;-56
2022/10/20 12:29:43;;;;;;;38.35;22.17;;;;;;;;;;5050889;28;20117;-56
2022/10/20 12:32:24;;;;;;;28.53;22.57;;;;;;;;;;5050940;28;20477;-54
2022/10/20 12:35:00;;;;;;;37.08;23.90;;;;;;;;;;5050674;28;20043;-56
2022/10/20 12:37:33;;;;;;;31.15;21.10;;;;;;;;;;5050998;28;20033;-56
2022/10/20 12:40:17;;;;;;;36.47;23.13;;;;;;;;;;5050510;28;20485;-54
2022/10/20 12:42:47;;;;;;;37.17;22.60;;;;;;;;;;5051160;28;20029;-56
2022/10/20 12:45:19;;;;;;;32.83;22.38;;;;;;;;;;5050904;28;20033;-57
2022/10/20 12:48:04;;;;;;;29.20;22.90;;;;;;;;;;5050550;28;20033;-57
2022/10/20 12:50:33;;;;;;;29.52;23.25;;;;;;;;;;5049558;28;20035;-54
2022/10/20 12:53:18;;;;;;;31.63;22.15;;;;;;;;;;5050970;28;20092;-55
2022/10/20 12:55:46;;;;;;;32.90;23.50;;;;;;;;;;5051128;28;20028;-54
2022/10/20 12:58:18;;;;;;;31.95;21.45;;;;;;;;;;5050395;28;20090;-56
2022/10/20 13:00:48;;;;;;;33.33;22.30;;;;;;;;;;5050530;28;20485;-54
2022/10/20 13:03:32;;;;;;;29.05;22.00;;;;;;;;;;5053135;28;20393;-54
2022/10/20 13:05:59;;;;;;;30.02;20.67;;;;;;;;;;5054813;28;20029;-56
2022/10/20 13:08:32;;;;;;;32.53;21.08;;;;;;;;;;5054564;28;20404;-54
2022/10/20 13:11:17;;;;;;;31.55;21.30;;;;;;;;;;5040291;28;20393;-55
2022/10/20 13:13:49;;;;;;;32.25;21.83;;;;;;;;;;5054234;28;20029;-55
2022/10/20 13:16:18;;;;;;;31.13;23.33;;;;;;;;;;5054378;28;20385;-55
2022/10/20 13:18:45;;;;;;;33.95;20.75;;;;;;;;;;5054165;28;20489;-56
2022/10/20 13:21:21;;;;;;;28.98;21.55;;;;;;;;;;5054129;28;20436;-56
2022/10/20 13:23:53;;;;;;;32.47;22.73;;;;;;;;;;5054095;28;20086;-55
2022/10/20 13:26:29;;;;;;;31.83;22.45;;;;;;;;;;5054119;28;20029;-55
2022/10/20 13:28:56;;;;;;;36.00;21.90;;;;;;;;;;5054092;28;20392;-54
2022/10/20 13:31:29;;;;;;;30.85;22.00;;;;;;;;;;5053130;28;20041;-55
2022/10/20 13:34:16;;;;;;;27.98;21.45;;;;;;;;;;5053685;28;20107;-54
2022/10/20 13:36:46;;;;;;;33.95;21.98;;;;;;;;;;5053838;28;20100;-55
2022/10/20 13:39:19;;;;;;;36.10;20.83;;;;;;;;;;5053532;28;20033;-54
2022/10/20 13:41:51;;;;;;;36.28;22.00;;;;;;;;;;5053791;28;20021;-54
2022/10/20 13:44:25;;;;;;;35.28;21.77;;;;;;;;;;5053927;28;20515;-57
2022/10/20 13:46:54;;;;;;;37.40;22.60;;;;;;;;;;5053635;28;20409;-53
2022/10/20 13:49:29;;;;;;;29.98;21.30;;;;;;;;;;5041811;28;20465;-57
2022/10/20 13:52:01;;;;;;;33.65;23.08;;;23.70;66.50;;;;;;5047266;28;20437;-58
2022/10/20 13:54:33;;;;;;;29.30;20.38;;;26.40;57.10;;;;;;5047691;28;20455;-57
2022/10/20 13:56:59;;;;;;;26.13;19.95;;;26.10;57.30;;;;;;5053095;28;20025;-55
2022/10/20 13:59:29;;;;;;;32.55;21.08;;;26.10;57.70;;;;;;5053558;28;20104;-58
2022/10/20 14:02:21;;;;;;;27.17;20.20;;;26.20;57.40;;;;;;5034299;28;20017;-55
2022/10/20 14:04:47;;;;;;;29.33;20.05;;;26.20;57.10;;;;;;5052266;28;20027;-56
2022/10/20 14:07:14;;;;;;;23.93;19.23;;;;;;;;;;5053480;28;20104;-55
2022/10/20 14:09:41;;;;;;;31.15;22.15;;;;;;;;;;5053383;28;20301;-56
2022/10/20 14:12:13;;;;;;;29.30;22.55;;;26.10;57.90;;;;;;5053253;28;20096;-57
2022/10/20 14:14:43;;;;;;;36.17;24.42;;;25.40;59.10;;;;;;5047912;28;20493;-57
2022/10/20 14:17:18;;;;;;;28.73;21.73;;;25.10;59.70;;;;;;5053221;28;20021;-56
2022/10/20 14:19:44;;;;;;;35.58;22.50;;;24.60;59.90;;;;;;5052922;28;20025;-57